Time;durP1;ratioP1;P1;durP2;ratioP2;P2;SDS_P1;SDS_P2;PMS_P1;PMS_P2;Temp;Humidity;BMP_temperature;BMP_pressure;BME280_temperature;BME280_humidity;BME280_pressure;Samples;Min_cycle;Max_cycle;Signal;HPM_P1;HPM_P2
2020/12/25 00:02:09;;;;;;;28.35;21.10;;;11.90;89.70;;;;;;5075946;28;20441;-47
2020/12/25 00:04:36;;;;;;;29.45;20.77;;;11.90;90.00;;;;;;5075750;28;20062;-49
2020/12/25 00:07:03;;;;;;;23.85;20.05;;;11.90;90.50;;;;;;5075873;28;20025;-50
2020/12/25 00:09:29;;;;;;;25.00;18.55;;;11.80;90.80;;;;;;5075670;28;20531;-48
2020/12/25 00:11:54;;;;;;;23.58;17.85;;;11.60;91.60;;;;;;5075543;28;20083;-46
2020/12/25 00:14:20;;;;;;;25.60;19.42;;;11.70;91.50;;;;;;5075633;28;20024;-48
2020/12/25 00:16:46;;;;;;;21.60;16.92;;;11.70;91.40;;;;;;5075682;28;20032;-49
2020/12/25 00:19:11;;;;;;;25.23;18.10;;;11.60;91.60;;;;;;5075388;28;20028;-46
2020/12/25 00:21:40;;;;;;;24.77;17.65;;;11.60;91.80;;;;;;5072771;28;20039;-48
2020/12/25 00:24:05;;;;;;;22.95;17.40;;;11.50;92.00;;;;;;5075419;28;20025;-45
2020/12/25 00:26:32;;;;;;;21.25;17.45;;;11.50;92.10;;;;;;5075418;28;20035;-47
2020/12/25 00:29:00;;;;;;;21.85;17.58;;;11.50;92.10;;;;;;5075204;28;20079;-46
2020/12/25 00:31:31;;;;;;;22.75;17.73;;;11.50;91.90;;;;;;5074594;28;20032;-50
2020/12/25 00:34:01;;;;;;;20.97;17.67;;;11.60;91.70;;;;;;5075152;28;20039;-49
2020/12/25 00:36:30;;;;;;;24.83;18.88;;;11.50;91.70;;;;;;5075057;28;20025;-49
2020/12/25 00:38:58;;;;;;;21.58;17.40;;;11.40;92.00;;;;;;5053902;28;20033;-48
2020/12/25 00:41:24;;;;;;;22.52;17.20;;;11.40;92.10;;;;;;5073260;28;20108;-48
2020/12/25 00:43:50;;;;;;;22.40;16.45;;;11.30;92.30;;;;;;5074868;28;20035;-48
2020/12/25 00:46:16;;;;;;;21.60;16.70;;;11.30;92.40;;;;;;5074981;28;20024;-50
2020/12/25 00:48:42;;;;;;;19.92;16.60;;;11.30;92.40;;;;;;5075024;28;20031;-50
2020/12/25 00:51:16;;;;;;;19.20;15.75;;;11.20;92.30;;;;;;5074908;28;20024;-46
2020/12/25 00:53:41;;;;;;;18.10;14.02;;;11.20;92.30;;;;;;5075065;28;20029;-47
2020/12/25 00:56:08;;;;;;;16.95;13.65;;;11.10;92.50;;;;;;5074879;28;20082;-46
2020/12/25 00:58:34;;;;;;;16.98;13.90;;;11.10;92.70;;;;;;5074846;28;20032;-47
2020/12/25 01:01:00;;;;;;;17.27;12.68;;;11.00;92.80;;;;;;5073009;28;20033;-46
2020/12/25 01:03:26;;;;;;;18.15;12.65;;;10.90;93.10;;;;;;5074750;28;20028;-49
2020/12/25 01:05:51;;;;;;;15.65;12.52;;;10.90;93.30;;;;;;5074783;28;20028;-48
2020/12/25 01:08:17;;;;;;;18.52;14.13;;;10.80;93.40;;;;;;5074618;28;20472;-49
2020/12/25 01:10:43;;;;;;;19.95;16.30;;;10.90;93.40;;;;;;5074529;28;20491;-49
2020/12/25 01:13:09;;;;;;;18.08;15.13;;;11.00;93.20;;;;;;5074434;28;20129;-51
2020/12/25 01:15:34;;;;;;;14.85;11.73;;;11.10;92.80;;;;;;5072929;28;20127;-49
2020/12/25 01:18:00;;;;;;;12.77;10.23;;;10.90;92.80;;;;;;5072637;28;20354;-52
2020/12/25 01:20:26;;;;;;;14.38;10.52;;;10.70;93.10;;;;;;5074252;28;20060;-49
2020/12/25 01:22:51;;;;;;;13.57;9.90;;;10.80;93.00;;;;;;5074307;28;20029;-49
2020/12/25 01:25:17;;;;;;;12.05;8.98;;;10.80;92.80;;;;;;5074431;28;20028;-51
2020/12/25 01:27:43;;;;;;;14.27;10.57;;;10.80;92.70;;;;;;5074072;28;20491;-52
2020/12/25 01:30:08;;;;;;;12.85;9.80;;;10.80;92.50;;;;;;5073900;28;20131;-49
2020/12/25 01:32:34;;;;;;;17.27;10.75;;;10.70;92.70;;;;;;5074084;28;20040;-51
2020/12/25 01:35:04;;;;;;;16.60;10.80;;;10.90;92.30;;;;;;5074467;28;20032;-51
2020/12/25 01:37:30;;;;;;;13.05;10.80;;;11.00;91.80;;;;;;5073841;28;20016;-51
2020/12/25 01:39:56;;;;;;;13.00;10.25;;;11.10;91.40;;;;;;5074044;28;20020;-50
2020/12/25 01:42:22;;;;;;;13.43;9.48;;;11.30;90.90;;;;;;5074263;28;20059;-49
2020/12/25 01:44:47;;;;;;;10.80;9.27;;;11.40;90.50;;;;;;5073741;28;20056;-53
2020/12/25 01:47:15;;;;;;;9.85;8.02;;;11.50;90.10;;;;;;5073972;28;20052;-50
2020/12/25 01:49:41;;;;;;;11.52;8.57;;;11.60;89.60;;;;;;5071803;28;20082;-50
2020/12/25 01:52:07;;;;;;;11.05;8.27;;;11.50;89.90;;;;;;5073913;28;20123;-52
2020/12/25 01:54:33;;;;;;;13.00;9.82;;;11.60;89.30;;;;;;5073666;28;20056;-50
2020/12/25 01:56:59;;;;;;;10.43;8.82;;;11.70;88.70;;;;;;5073792;28;20028;-50
2020/12/25 01:59:25;;;;;;;10.98;8.75;;;11.70;88.20;;;;;;5072085;28;20036;-51
2020/12/25 02:01:51;;;;;;;11.68;8.82;;;11.80;88.20;;;;;;5073581;28;20396;-50
2020/12/25 02:04:17;;;;;;;11.50;8.88;;;11.80;88.10;;;;;;5071757;28;20045;-49
2020/12/25 02:06:43;;;;;;;18.50;13.52;;;11.60;88.20;;;;;;5073425;28;20049;-52
2020/12/25 02:09:09;;;;;;;16.35;13.63;;;11.40;89.10;;;;;;5073695;28;20025;-50
2020/12/25 02:11:37;;;;;;;15.52;11.43;;;11.50;89.20;;;;;;5073634;28;20464;-49
2020/12/25 02:14:03;;;;;;;19.30;12.88;;;11.50;89.10;;;;;;5073821;28;20029;-53
2020/12/25 02:16:29;;;;;;;15.27;11.25;;;11.60;88.90;;;;;;5073659;28;20025;-49
2020/12/25 02:18:54;;;;;;;13.48;9.20;;;11.70;88.20;;;;;;5073323;28;20031;-50
2020/12/25 02:21:20;;;;;;;10.82;7.50;;;11.80;87.50;;;;;;5073520;28;20534;-50
2020/12/25 02:23:46;;;;;;;7.97;6.13;;;11.80;87.10;;;;;;5073422;28;20034;-52
2020/12/25 02:26:12;;;;;;;8.55;7.07;;;11.70;87.20;;;;;;5073461;28;20025;-49
2020/12/25 02:28:40;;;;;;;11.40;7.05;;;11.70;86.90;;;;;;5073114;28;20567;-52
2020/12/25 02:31:07;;;;;;;11.48;8.60;;;11.80;86.80;;;;;;5073332;28;20107;-49
2020/12/25 02:33:33;;;;;;;11.50;9.02;;;11.80;86.50;;;;;;5073360;28;20020;-51
2020/12/25 02:35:59;;;;;;;14.55;11.13;;;11.90;86.20;;;;;;5073196;28;20027;-52
2020/12/25 02:38:25;;;;;;;13.55;9.05;;;11.90;86.00;;;;;;5071523;28;20041;-51
2020/12/25 02:40:51;;;;;;;13.52;10.80;;;12.00;85.60;;;;;;5073409;28;20116;-52
2020/12/25 02:43:17;;;;;;;17.35;12.60;;;12.00;85.40;;;;;;5073277;28;20055;-50
2020/12/25 02:45:42;;;;;;;15.93;10.32;;;12.00;85.40;;;;;;5077428;28;20071;-51
2020/12/25 02:48:08;;;;;;;13.95;10.65;;;11.90;85.00;;;;;;5077334;28;20028;-50
2020/12/25 02:50:34;;;;;;;11.40;8.60;;;11.90;85.50;;;;;;5075488;28;20040;-48
2020/12/25 02:53:00;;;;;;;11.30;7.63;;;12.00;85.20;;;;;;5077035;28;20035;-51
2020/12/25 02:55:26;;;;;;;14.30;9.82;;;12.00;84.70;;;;;;5077100;28;20037;-49
2020/12/25 02:57:52;;;;;;;14.52;9.60;;;11.90;85.00;;;;;;5077019;28;20025;-52
2020/12/25 03:00:18;;;;;;;16.25;9.93;;;11.80;85.30;;;;;;5077510;28;20028;-49
2020/12/25 03:02:43;;;;;;;10.25;8.10;;;11.80;85.30;;;;;;5076955;28;20035;-52
2020/12/25 03:05:09;;;;;;;10.60;7.63;;;11.60;86.60;;;;;;5076948;28;20032;-49
2020/12/25 03:07:35;;;;;;;8.32;6.78;;;11.70;86.30;;;;;;5076885;28;20075;-51
2020/12/25 03:10:01;;;;;;;10.88;7.07;;;11.90;86.00;;;;;;5076844;28;20104;-49
2020/12/25 03:12:26;;;;;;;8.75;6.47;;;11.70;86.40;;;;;;5076597;28;20127;-48
2020/12/25 03:14:52;;;;;;;9.38;6.65;;;11.60;86.50;;;;;;5076988;28;20055;-50
2020/12/25 03:17:18;;;;;;;8.45;6.28;;;11.30;87.40;;;;;;5076661;28;20025;-50
2020/12/25 03:19:44;;;;;;;9.98;6.80;;;11.00;89.00;;;;;;5076638;28;20031;-51
2020/12/25 03:22:10;;;;;;;9.77;7.13;;;10.80;90.40;;;;;;5076543;28;20070;-50
2020/12/25 03:24:35;;;;;;;8.93;6.80;;;10.80;90.50;;;;;;5076634;28;20028;-51
2020/12/25 03:27:01;;;;;;;8.20;7.07;;;10.70;91.20;;;;;;5076549;28;20028;-50
2020/12/25 03:29:27;;;;;;;8.52;6.68;;;10.80;91.30;;;;;;5076348;28;20055;-48
2020/12/25 03:31:52;;;;;;;7.07;5.57;;;10.50;91.50;;;;;;5074716;28;20040;-49
2020/12/25 03:34:18;;;;;;;6.93;5.00;;;10.30;92.00;;;;;;5076374;28;20029;-52
2020/12/25 03:36:44;;;;;;;9.38;7.43;;;10.20;92.20;;;;;;5076492;28;20051;-51
2020/12/25 03:39:09;;;;;;;14.98;11.30;;;10.10;92.40;;;;;;5076397;28;20070;-50
2020/12/25 03:41:35;;;;;;;47.00;29.83;;;10.20;92.50;;;;;;5076306;28;20028;-51
2020/12/25 03:44:01;;;;;;;85.65;60.00;;;10.20;92.50;;;;;;5076243;28;20104;-50
2020/12/25 03:46:37;;;;;;;17.13;15.18;;;10.10;92.90;;;;;;5076355;28;20029;-51
2020/12/25 03:49:04;;;;;;;7.18;6.15;;;10.10;92.90;;;;;;5076128;28;20480;-51
2020/12/25 03:51:30;;;;;;;15.52;12.70;;;10.20;92.80;;;;;;5076113;28;20040;-50
2020/12/25 03:53:56;;;;;;;15.30;12.48;;;10.00;92.90;;;;;;5076146;28;20024;-48
2020/12/25 03:56:21;;;;;;;9.00;7.45;;;9.80;93.30;;;;;;5075871;28;20036;-52
2020/12/25 03:58:47;;;;;;;8.45;7.57;;;9.80;93.30;;;;;;5076275;28;20047;-52
2020/12/25 04:01:13;;;;;;;6.13;5.20;;;9.80;93.60;;;;;;5076208;28;20032;-51
2020/12/25 04:03:39;;;;;;;7.10;5.43;;;9.80;93.30;;;;;;5076149;28;20419;-51
2020/12/25 04:06:05;;;;;;;6.50;4.78;;;10.00;93.20;;;;;;5075809;28;20021;-49
2020/12/25 04:08:30;;;;;;;5.90;4.15;;;10.20;92.40;;;;;;5073920;28;20047;-49
2020/12/25 04:10:56;;;;;;;6.50;4.38;;;10.40;91.80;;;;;;5074033;28;20036;-50
2020/12/25 04:13:22;;;;;;;5.03;3.90;;;10.60;91.50;;;;;;5075559;28;20037;-49
2020/12/25 04:15:48;;;;;;;4.93;3.63;;;10.80;91.10;;;;;;5075646;28;20028;-52
2020/12/25 04:18:14;;;;;;;6.45;4.20;;;10.90;90.70;;;;;;5075527;28;20122;-49
2020/12/25 04:20:40;;;;;;;6.40;4.30;;;11.00;90.60;;;;;;5075687;28;20109;-52
2020/12/25 04:23:06;;;;;;;5.25;3.85;;;11.00;90.40;;;;;;5075039;28;20032;-50
2020/12/25 04:25:32;;;;;;;5.68;4.35;;;11.10;90.10;;;;;;5075154;28;20021;-49
2020/12/25 04:27:58;;;;;;;6.38;4.80;;;11.20;90.00;;;;;;5074433;28;20025;-49
2020/12/25 04:30:24;;;;;;;7.43;4.97;;;11.30;89.60;;;;;;5075413;28;20060;-49
2020/12/25 04:32:49;;;;;;;5.45;3.92;;;11.30;89.90;;;;;;5075333;28;20056;-50
2020/12/25 04:35:15;;;;;;;7.03;4.70;;;11.30;89.30;;;;;;5075298;28;20100;-49
2020/12/25 04:37:41;;;;;;;6.10;3.78;;;11.30;89.50;;;;;;5074286;28;20024;-48
2020/12/25 04:40:07;;;;;;;5.95;3.67;;;11.40;89.30;;;;;;5073472;28;20435;-51
2020/12/25 04:42:40;;;;;;;8.52;5.18;;;11.40;89.00;;;;;;5075174;28;20039;-51
2020/12/25 04:45:06;;;;;;;6.55;4.97;;;11.40;89.10;;;;;;5075068;28;20082;-51
2020/12/25 04:47:34;;;;;;;5.85;4.60;;;11.40;88.80;;;;;;5075052;28;20053;-50
2020/12/25 04:50:02;;;;;;;6.68;4.25;;;11.40;89.00;;;;;;5075187;28;20075;-50
2020/12/25 04:52:28;;;;;;;9.52;7.78;;;11.40;89.00;;;;;;5075024;28;20036;-52
2020/12/25 04:54:54;;;;;;;10.07;9.07;;;11.30;89.00;;;;;;5056466;28;20104;-51
2020/12/25 04:57:19;;;;;;;11.43;5.22;;;10.80;90.60;;;;;;5074845;28;20060;-49
2020/12/25 04:59:45;;;;;;;6.47;4.50;;;11.10;90.30;;;;;;5075143;28;20035;-50
2020/12/25 05:02:11;;;;;;;6.93;5.07;;;11.20;89.90;;;;;;5039580;28;20060;-53
2020/12/25 05:04:36;;;;;;;8.48;6.78;;;11.30;89.60;;;;;;5073430;28;20024;-49
2020/12/25 05:07:02;;;;;;;8.68;6.82;;;11.00;90.20;;;;;;5074103;28;20111;-51
2020/12/25 05:09:29;;;;;;;9.18;6.80;;;10.30;91.60;;;;;;5074513;28;20084;-52
2020/12/25 05:11:57;;;;;;;11.38;8.30;;;9.80;93.10;;;;;;5072609;28;20048;-50
2020/12/25 05:14:28;;;;;;;12.65;9.13;;;9.70;93.80;;;;;;5074552;28;20502;-50
2020/12/25 05:16:55;;;;;;;13.05;8.90;;;9.70;94.30;;;;;;5074422;28;20468;-52
2020/12/25 05:19:29;;;;;;;12.75;9.93;;;10.20;93.20;;;;;;5072700;28;20111;-51
2020/12/25 05:21:56;;;;;;;12.43;8.85;;;10.50;92.30;;;;;;5074256;28;20025;-52
2020/12/25 05:24:22;;;;;;;11.95;8.73;;;10.60;91.70;;;;;;5074151;28;20478;-48
2020/12/25 05:26:56;;;;;;;11.10;7.53;;;10.10;92.50;;;;;;5072948;28;20063;-52
2020/12/25 05:29:23;;;;;;;11.40;8.88;;;9.90;93.30;;;;;;5074249;28;20048;-52
2020/12/25 05:31:50;;;;;;;12.93;11.52;;;9.90;93.20;;;;;;5055807;28;20120;-49
2020/12/25 05:34:18;;;;;;;17.98;13.75;;;9.90;93.50;;;;;;5072070;28;20052;-52
2020/12/25 05:36:51;;;;;;;10.40;8.30;;;9.70;93.90;;;;;;5072006;28;20041;-49
2020/12/25 05:39:31;;;;;;;10.52;8.40;;;9.70;94.00;;;;;;5072007;28;20037;-51
2020/12/25 05:42:01;;;;;;;10.15;8.00;;;9.90;93.90;;;;;;5071930;28;20115;-49
2020/12/25 05:44:29;;;;;;;12.40;9.57;;;10.20;93.20;;;;;;5071770;28;20082;-49
2020/12/25 05:46:59;;;;;;;11.98;8.73;;;10.50;92.50;;;;;;5071922;28;20058;-50
2020/12/25 05:49:29;;;;;;;11.40;10.02;;;10.70;91.90;;;;;;5071723;28;20028;-50
2020/12/25 05:51:55;;;;;;;13.02;8.63;;;10.50;92.40;;;;;;5071791;28;20040;-52
2020/12/25 05:54:25;;;;;;;8.40;7.47;;;10.70;92.00;;;;;;5071642;28;20120;-49
2020/12/25 05:56:56;;;;;;;16.65;9.65;;;10.90;91.40;;;;;;5071695;28;20079;-49
2020/12/25 05:59:27;;;;;;;15.05;9.70;;;11.00;91.20;;;;;;5071740;28;20119;-51
2020/12/25 06:01:57;;;;;;;9.32;7.40;;;11.10;90.80;;;;;;5072130;28;20509;-50
2020/12/25 06:04:27;;;;;;;13.23;10.27;;;11.20;90.40;;;;;;5071755;28;20047;-50
2020/12/25 06:06:54;;;;;;;12.35;10.82;;;11.30;90.40;;;;;;5072489;28;20107;-52
2020/12/25 06:09:27;;;;;;;12.05;10.63;;;11.30;90.10;;;;;;5073694;28;20086;-52
2020/12/25 06:11:52;;;;;;;11.95;10.32;;;11.30;90.10;;;;;;5073450;28;20031;-47
2020/12/25 06:14:18;;;;;;;16.40;13.32;;;11.40;90.10;;;;;;5071715;28;20036;-50
2020/12/25 06:16:55;;;;;;;12.35;10.77;;;11.40;90.00;;;;;;5073722;28;20086;-55
2020/12/25 06:19:34;;;;;;;13.60;10.70;;;11.10;90.50;;;;;;5073835;28;20020;-50
2020/12/25 06:22:04;;;;;;;13.95;10.38;;;10.80;91.30;;;;;;5082202;28;20123;-46
2020/12/25 06:24:33;;;;;;;13.27;10.15;;;10.70;91.60;;;;;;5082269;28;20028;-48
2020/12/25 06:27:02;;;;;;;18.00;13.68;;;10.60;91.70;;;;;;5073465;28;20060;-50
2020/12/25 06:29:28;;;;;;;15.70;13.27;;;10.60;92.10;;;;;;5073062;28;20484;-51
2020/12/25 06:31:56;;;;;;;14.57;12.85;;;10.60;91.90;;;;;;5071680;28;20121;-50
2020/12/25 06:34:38;;;;;;;15.52;12.98;;;10.60;92.10;;;;;;5074646;28;20040;-49
2020/12/25 06:37:08;;;;;;;18.83;14.15;;;10.70;91.80;;;;;;5072899;28;20028;-50
2020/12/25 06:39:33;;;;;;;16.05;13.80;;;10.70;91.90;;;;;;5091823;28;20032;-49
2020/12/25 06:41:59;;;;;;;18.63;13.25;;;10.60;92.20;;;;;;5092630;28;20039;-49
2020/12/25 06:44:29;;;;;;;16.50;14.18;;;10.80;91.60;;;;;;5093062;28;20028;-50
2020/12/25 06:47:01;;;;;;;14.43;12.65;;;10.70;91.60;;;;;;5093390;28;20427;-50
2020/12/25 06:49:35;;;;;;;16.88;14.93;;;10.90;91.30;;;;;;5093328;28;20044;-50
2020/12/25 06:52:01;;;;;;;15.10;13.50;;;11.00;91.10;;;;;;5091804;28;20047;-48
2020/12/25 06:54:27;;;;;;;15.50;12.65;;;11.00;91.00;;;;;;5092249;28;20454;-49
2020/12/25 06:56:54;;;;;;;16.10;12.23;;;11.20;90.80;;;;;;5092219;28;20064;-50
2020/12/25 06:59:21;;;;;;;17.75;13.40;;;11.20;90.50;;;;;;5092091;28;20034;-50
2020/12/25 07:01:48;;;;;;;13.25;10.73;;;11.20;90.50;;;;;;5092174;28;20028;-50
2020/12/25 07:04:31;;;;;;;18.65;12.48;;;11.30;90.40;;;;;;5091995;28;20111;-49
2020/12/25 07:07:12;;;;;;;16.45;11.43;;;11.20;90.40;;;;;;5092060;28;20028;-50
2020/12/25 07:09:46;;;;;;;45.10;23.98;;;11.00;91.00;;;;;;5092005;28;20040;-49
2020/12/25 07:12:20;;;;;;;283.17;114.72;;;11.10;90.80;;;;;;5092004;28;20454;-49
2020/12/25 07:14:46;;;;;;;205.77;96.65;;;11.00;91.00;;;;;;5091684;28;20093;-50
2020/12/25 07:17:12;;;;;;;45.63;29.00;;;11.00;91.00;;;;;;5091278;28;20464;-50
2020/12/25 07:19:39;;;;;;;129.68;105.15;;;11.20;90.70;;;;;;5091344;28;20108;-50
2020/12/25 07:22:06;;;;;;;46.92;38.75;;;11.20;90.50;;;;;;5091373;28;20039;-50
2020/12/25 07:24:36;;;;;;;55.10;40.00;;;11.20;90.80;;;;;;5091164;28;20078;-49
2020/12/25 07:27:02;;;;;;;55.92;39.35;;;11.10;90.60;;;;;;5089295;28;20040;-50
2020/12/25 07:29:28;;;;;;;78.93;49.10;;;11.20;90.40;;;;;;5091068;28;20059;-50
2020/12/25 07:31:54;;;;;;;66.80;45.63;;;11.30;90.40;;;;;;5095485;28;20549;-50
2020/12/25 07:34:21;;;;;;;87.20;58.58;;;11.40;90.20;;;;;;5095661;28;20555;-49
2020/12/25 07:36:49;;;;;;;74.68;53.00;;;11.40;89.90;;;;;;5095650;28;20063;-49
2020/12/25 07:39:16;;;;;;;78.80;59.50;;;11.20;90.30;;;;;;5095267;28;20082;-51
2020/12/25 07:41:42;;;;;;;98.40;57.80;;;11.30;90.30;;;;;;5105375;28;20128;-49
2020/12/25 07:44:08;;;;;;;121.30;74.65;;;11.10;90.30;;;;;;5092892;28;20422;-49
2020/12/25 07:46:34;;;;;;;116.38;71.65;;;10.90;90.90;;;;;;5094925;28;20401;-49
2020/12/25 07:49:01;;;;;;;92.15;59.25;;;11.00;91.00;;;;;;5109326;28;20043;-49
2020/12/25 07:51:28;;;;;;;76.40;53.65;;;10.90;91.10;;;;;;5092556;28;20075;-48
2020/12/25 07:53:55;;;;;;;71.82;51.35;;;10.80;91.10;;;;;;5094792;28;20040;-48
2020/12/25 07:56:22;;;;;;;52.55;36.70;;;10.90;91.30;;;;;;5082565;28;20577;-48
2020/12/25 07:58:52;;;;;;;51.47;38.20;;;10.70;91.50;;;;;;5075874;28;20055;-47
2020/12/25 08:01:25;;;;;;;30.02;22.85;;;10.80;91.50;;;;;;5071080;28;20066;-47
2020/12/25 08:03:52;;;;;;;42.13;31.63;;;11.00;90.90;;;;;;5093954;28;20028;-50
2020/12/25 08:06:20;;;;;;;33.45;25.58;;;11.10;90.70;;;;;;5085575;28;20036;-50
2020/12/25 08:09:10;;;;;;;53.45;37.03;;;11.30;90.30;;;;;;5072485;28;20127;-49
2020/12/25 08:11:37;;;;;;;36.25;25.77;;;11.40;90.00;;;;;;5072539;28;20059;-50
2020/12/25 08:14:06;;;;;;;25.75;19.70;;;11.30;90.00;;;;;;5074661;28;20032;-49
2020/12/25 08:16:35;;;;;;;18.98;14.77;;;11.50;90.00;;;;;;5081294;28;20102;-50
2020/12/25 08:19:02;;;;;;;16.77;13.82;;;11.50;89.40;;;;;;5109797;28;20111;-49
2020/12/25 08:21:33;;;;;;;13.35;11.27;;;11.50;90.00;;;;;;5052064;28;20118;-49
2020/12/25 08:24:00;;;;;;;20.33;16.88;;;11.50;89.90;;;;;;5086466;28;20024;-47
2020/12/25 08:26:38;;;;;;;15.65;11.95;;;11.50;89.60;;;;;;5082649;28;20028;-49
2020/12/25 08:29:04;;;;;;;12.32;10.73;;;11.50;89.60;;;;;;5080692;28;20044;-49
2020/12/25 08:31:40;;;;;;;26.45;21.08;;;11.50;89.40;;;;;;5093749;28;20116;-47
2020/12/25 08:34:13;;;;;;;28.02;23.10;;;11.60;89.00;;;;;;5109338;28;20419;-51
2020/12/25 08:36:39;;;;;;;39.47;31.45;;;11.60;89.20;;;;;;5092278;28;20097;-49
2020/12/25 08:39:06;;;;;;;34.97;27.13;;;11.60;89.30;;;;;;5094325;28;20608;-48
2020/12/25 08:41:32;;;;;;;50.00;37.33;;;11.70;88.90;;;;;;5093249;28;20031;-48
2020/12/25 08:44:11;;;;;;;47.83;36.85;;;11.80;87.90;;;;;;5094261;28;20392;-49
2020/12/25 08:46:38;;;;;;;47.97;38.15;;;11.80;88.50;;;;;;5094155;28;20105;-49
2020/12/25 08:49:04;;;;;;;62.50;43.05;;;11.70;88.20;;;;;;5094071;28;20028;-51
2020/12/25 08:51:34;;;;;;;61.40;43.00;;;11.30;89.20;;;;;;5093909;28;20078;-51
2020/12/25 08:54:00;;;;;;;62.25;46.55;;;11.20;90.20;;;;;;5094055;28;20039;-49
2020/12/25 08:56:27;;;;;;;61.90;43.13;;;11.40;90.20;;;;;;5093898;28;20044;-52
2020/12/25 08:59:04;;;;;;;120.97;78.30;;;11.50;90.30;;;;;;5093910;28;20040;-47
2020/12/25 09:01:36;;;;;;;62.75;42.38;;;11.40;90.30;;;;;;5093747;28;20032;-50
2020/12/25 09:04:03;;;;;;;56.40;42.35;;;11.60;90.10;;;;;;5093820;28;20036;-47
2020/12/25 09:06:29;;;;;;;71.55;45.65;;;11.60;89.70;;;;;;5093764;28;20039;-46
2020/12/25 09:08:55;;;;;;;63.88;45.10;;;11.70;89.80;;;;;;5093830;28;20028;-47
2020/12/25 09:11:24;;;;;;;92.63;58.25;;;11.70;89.90;;;;;;5108411;28;20119;-48
2020/12/25 09:13:51;;;;;;;85.50;57.78;;;11.70;89.50;;;;;;5093513;28;20498;-49
2020/12/25 09:16:18;;;;;;;81.00;56.40;;;11.70;90.20;;;;;;5091349;28;20040;-50
2020/12/25 09:18:44;;;;;;;70.40;48.55;;;11.80;90.10;;;;;;5093639;28;20658;-51
2020/12/25 09:21:11;;;;;;;57.85;40.72;;;11.80;89.30;;;;;;5093517;28;20032;-49
2020/12/25 09:23:38;;;;;;;71.40;47.33;;;11.70;90.00;;;;;;5093378;28;20072;-48
2020/12/25 09:26:08;;;;;;;63.83;47.10;;;11.60;90.30;;;;;;5093461;28;20039;-47
2020/12/25 09:28:35;;;;;;;76.80;57.10;;;11.70;90.20;;;;;;5093062;28;20059;-47
2020/12/25 09:31:04;;;;;;;99.78;70.43;;;11.70;90.10;;;;;;5093337;28;20024;-49
2020/12/25 09:33:29;;;;;;;105.63;76.50;;;11.80;90.00;;;;;;5093174;28;20070;-49
2020/12/25 09:35:55;;;;;;;132.50;88.40;;;11.90;90.00;;;;;;5093230;28;20068;-50
2020/12/25 09:38:21;;;;;;;133.45;89.63;;;11.80;89.60;;;;;;5093194;28;20032;-47
2020/12/25 09:40:48;;;;;;;117.90;80.95;;;11.90;90.00;;;;;;5093157;28;20032;-48
2020/12/25 09:43:14;;;;;;;142.52;95.22;;;11.90;90.10;;;;;;5093188;28;20027;-47
2020/12/25 09:45:40;;;;;;;139.50;95.90;;;11.90;90.10;;;;;;5092725;28;20032;-48
2020/12/25 09:48:06;;;;;;;99.20;70.18;;;12.00;89.50;;;;;;5090683;28;20055;-52
2020/12/25 09:50:31;;;;;;;83.03;58.97;;;12.00;89.50;;;;;;5092732;28;20390;-48
2020/12/25 09:52:57;;;;;;;82.13;55.75;;;11.90;90.00;;;;;;5107477;28;20126;-51
2020/12/25 09:55:23;;;;;;;42.88;31.63;;;11.90;89.70;;;;;;5092684;28;20056;-48
2020/12/25 09:57:49;;;;;;;33.08;23.73;;;11.90;89.30;;;;;;5092846;28;20035;-53
2020/12/25 10:00:15;;;;;;;23.25;15.40;;;11.90;88.70;;;;;;5092752;28;20032;-48
2020/12/25 10:02:41;;;;;;;17.63;12.73;;;11.30;90.00;;;;;;5092519;28;20036;-49
2020/12/25 10:05:10;;;;;;;14.30;10.27;;;11.20;90.70;;;;;;5092782;28;20048;-51
2020/12/25 10:07:37;;;;;;;20.27;14.98;;;11.00;90.80;;;;;;5092669;28;20051;-50
2020/12/25 10:10:04;;;;;;;26.42;19.45;;;11.30;91.10;;;;;;5092613;28;20060;-53
2020/12/25 10:12:30;;;;;;;18.05;12.82;;;11.40;90.70;;;;;;5092614;28;20032;-53
2020/12/25 10:14:56;;;;;;;26.13;20.02;;;11.40;90.50;;;;;;5092537;28;20112;-53
2020/12/25 10:17:22;;;;;;;15.65;11.77;;;11.50;90.20;;;;;;5092461;28;20040;-48
2020/12/25 10:19:47;;;;;;;14.50;10.20;;;11.50;90.00;;;;;;5088569;28;20089;-50
2020/12/25 10:22:14;;;;;;;12.10;9.70;;;11.60;89.50;;;;;;5080662;28;20464;-48
2020/12/25 10:24:39;;;;;;;12.18;10.02;;;11.50;89.30;;;;;;5082080;28;20379;-52
2020/12/25 10:27:05;;;;;;;18.15;13.05;;;11.60;90.00;;;;;;5079776;28;20031;-53
2020/12/25 10:29:32;;;;;;;14.40;11.00;;;11.50;89.40;;;;;;5082428;28;20048;-47
2020/12/25 10:31:57;;;;;;;17.95;12.40;;;11.60;89.60;;;;;;5079948;28;20036;-51
2020/12/25 10:34:23;;;;;;;17.33;12.68;;;11.60;89.70;;;;;;5080950;28;20456;-54
2020/12/25 10:36:49;;;;;;;22.45;17.48;;;11.60;89.10;;;;;;5081642;28;20074;-51
2020/12/25 10:39:16;;;;;;;20.98;16.77;;;11.70;89.50;;;;;;5082669;28;20115;-53
2020/12/25 10:41:42;;;;;;;21.52;13.80;;;11.60;89.10;;;;;;5080683;28;20050;-54
2020/12/25 10:44:08;;;;;;;18.63;13.32;;;11.70;89.30;;;;;;5083425;28;20384;-53
2020/12/25 10:46:34;;;;;;;31.48;23.50;;;11.50;88.40;;;;;;5075479;28;20047;-55
2020/12/25 10:49:00;;;;;;;48.03;36.40;;;11.60;89.20;;;;;;5073634;28;20430;-54
2020/12/25 10:51:26;;;;;;;42.25;30.45;;;11.60;89.00;;;;;;5082375;28;20028;-54
2020/12/25 10:53:52;;;;;;;30.45;21.65;;;11.40;90.00;;;;;;5081331;28;20049;-53
2020/12/25 10:56:22;;;;;;;28.33;21.92;;;11.20;90.60;;;;;;5080740;28;20024;-56
2020/12/25 10:58:49;;;;;;;26.05;19.80;;;11.00;90.50;;;;;;5080850;28;20020;-54
2020/12/25 11:01:24;;;;;;;17.05;12.98;;;10.80;91.20;;;;;;5095998;28;20028;-54
2020/12/25 11:03:50;;;;;;;17.08;13.05;;;10.80;91.20;;;;;;5047489;28;20071;-51
2020/12/25 11:06:16;;;;;;;20.15;15.57;;;10.80;91.40;;;;;;5084308;28;20024;-55
2020/12/25 11:08:42;;;;;;;16.92;12.75;;;10.90;91.50;;;;;;5086336;28;20364;-53
2020/12/25 11:11:08;;;;;;;14.18;11.27;;;10.90;91.30;;;;;;5081052;28;20059;-53
2020/12/25 11:13:34;;;;;;;17.95;13.88;;;11.00;90.90;;;;;;5075676;28;20123;-53
2020/12/25 11:16:00;;;;;;;17.58;15.10;;;11.00;91.20;;;;;;5087953;28;20118;-55
2020/12/25 11:18:26;;;;;;;27.05;20.65;;;10.70;91.30;;;;;;5095329;28;20103;-52
2020/12/25 11:20:51;;;;;;;44.60;33.10;;;10.60;91.60;;;;;;5095181;28;20050;-54
2020/12/25 11:23:17;;;;;;;30.73;20.90;;;10.50;92.20;;;;;;5092526;28;20020;-56
2020/12/25 11:25:43;;;;;;;24.38;18.23;;;10.40;92.60;;;;;;5095170;28;20043;-53
2020/12/25 11:28:09;;;;;;;16.35;13.00;;;10.60;92.20;;;;;;5094909;28;20383;-52
2020/12/25 11:30:34;;;;;;;18.65;13.85;;;10.60;92.20;;;;;;5095595;28;20091;-52
2020/12/25 11:33:00;;;;;;;19.73;16.08;;;10.70;92.00;;;;;;5095342;28;20063;-51
2020/12/25 11:35:26;;;;;;;17.73;13.20;;;10.70;91.60;;;;;;5095775;28;20043;-53
2020/12/25 11:37:51;;;;;;;18.02;14.52;;;10.90;91.00;;;;;;5093236;28;20090;-54
2020/12/25 11:40:17;;;;;;;50.65;26.48;;;11.00;91.00;;;;;;5095531;28;20063;-55
2020/12/25 11:42:43;;;;;;;48.33;24.63;;;11.20;90.90;;;;;;5095495;28;20036;-51
2020/12/25 11:45:09;;;;;;;26.58;14.00;;;11.40;90.60;;;;;;5095402;28;20036;-52
2020/12/25 11:47:34;;;;;;;28.02;14.05;;;11.50;90.00;;;;;;5095460;28;20043;-51
2020/12/25 11:50:00;;;;;;;16.05;12.18;;;11.60;87.70;;;;;;5095308;28;20490;-51
2020/12/25 11:52:31;;;;;;;8.15;6.97;;;11.70;89.00;;;;;;5095294;28;20392;-53
2020/12/25 11:54:56;;;;;;;7.60;6.00;;;11.80;88.10;;;;;;5093057;28;20043;-53
2020/12/25 11:57:22;;;;;;;6.82;5.53;;;11.80;87.90;;;;;;5095288;28;20032;-52
2020/12/25 11:59:48;;;;;;;8.48;6.80;;;11.90;87.30;;;;;;5095099;28;20036;-54
2020/12/25 12:02:14;;;;;;;13.88;9.88;;;11.90;86.90;;;;;;5094018;28;20043;-52
2020/12/25 12:04:39;;;;;;;8.25;5.78;;;12.00;87.30;;;;;;5095120;28;20024;-53
2020/12/25 12:07:05;;;;;;;7.82;4.93;;;12.00;86.50;;;;;;5094969;28;20024;-53
2020/12/25 12:09:31;;;;;;;8.80;5.95;;;12.00;86.60;;;;;;5093546;28;20143;-52
2020/12/25 12:11:56;;;;;;;10.65;6.70;;;11.90;88.10;;;;;;5094862;28;20036;-54
2020/12/25 12:14:22;;;;;;;9.55;6.18;;;11.70;88.40;;;;;;5094717;28;20548;-52
2020/12/25 12:16:51;;;;;;;6.07;5.47;;;11.60;88.90;;;;;;5093543;28;20028;-54
2020/12/25 12:19:17;;;;;;;9.27;5.97;;;11.50;88.50;;;;;;5094719;28;20433;-52
2020/12/25 12:21:43;;;;;;;10.80;6.05;;;11.40;89.10;;;;;;5094816;28;20035;-53
2020/12/25 12:24:08;;;;;;;8.55;6.93;;;11.60;89.20;;;;;;5093314;28;20044;-52
2020/12/25 12:26:34;;;;;;;11.82;9.55;;;11.40;89.20;;;;;;5094628;28;20468;-52
2020/12/25 12:29:00;;;;;;;11.85;9.18;;;11.60;89.10;;;;;;5094407;28;20090;-53
2020/12/25 12:31:25;;;;;;;11.40;8.90;;;11.50;90.30;;;;;;5090606;28;20456;-54
2020/12/25 12:33:51;;;;;;;9.45;7.45;;;11.50;89.20;;;;;;5094407;28;20043;-52